Time;durP1;ratioP1;P1;durP2;ratioP2;P2;SDS_P1;SDS_P2;PMS_P1;PMS_P2;Temp;Humidity;BMP_temperature;BMP_pressure;BME280_temperature;BME280_humidity;BME280_pressure;Samples;Min_cycle;Max_cycle;Signal;HPM_P1;HPM_P2
2022/04/15 00:06:08;;;;;;;11.47;5.50;;;13.70;99.90;;;;;;20994982;28;20234;-67
2022/04/15 00:16:10;;;;;;;10.53;5.97;;;13.50;99.90;;;;;;20994875;28;20685;-69
2022/04/15 00:26:12;;;;;;;6.60;5.10;;;13.40;99.90;;;;;;20994125;28;20257;-68
2022/04/15 00:36:13;;;;;;;8.03;5.10;;;13.40;99.90;;;;;;21009011;28;20213;-66
2022/04/15 00:46:15;;;;;;;12.27;4.63;;;13.40;99.90;;;;;;20995268;28;20231;-65
2022/04/15 00:56:17;;;;;;;8.23;5.63;;;13.10;99.90;;;;;;21004914;28;20213;-66
2022/04/15 01:06:22;;;;;;;9.53;5.50;;;13.20;99.90;;;;;;20989971;28;20243;-67
2022/04/15 01:16:25;;;;;;;9.47;5.33;;;13.00;99.90;;;;;;21006857;28;20258;-67
2022/04/15 01:26:27;;;;;;;8.10;5.30;;;12.90;99.90;;;;;;20988332;28;20276;-65
2022/04/15 01:36:29;;;;;;;9.77;5.50;;;12.60;99.90;;;;;;21005990;28;20215;-66
2022/04/15 01:46:30;;;;;;;9.50;5.97;;;12.60;99.90;;;;;;20986774;28;20236;-67
2022/04/15 01:56:32;;;;;;;8.03;5.07;;;12.50;99.90;;;;;;21003883;28;20201;-66
2022/04/15 02:06:34;;;;;;;7.17;4.87;;;12.50;99.90;;;;;;21003113;28;20597;-64
2022/04/15 02:16:36;;;;;;;7.60;4.83;;;12.40;99.90;;;;;;21002302;28;20209;-68
2022/04/15 02:26:37;;;;;;;6.17;4.43;;;12.30;99.90;;;;;;21001560;28;20234;-66
2022/04/15 02:36:39;;;;;;;8.80;4.93;;;12.30;99.90;;;;;;21000973;28;20202;-67
2022/04/15 02:46:41;;;;;;;8.03;5.10;;;12.20;99.80;;;;;;20999794;28;20236;-69
2022/04/15 02:56:43;;;;;;;5.33;4.50;;;12.00;99.80;;;;;;20999021;28;20207;-66
2022/04/15 03:06:44;;;;;;;11.73;5.37;;;12.00;99.90;;;;;;20998456;28;20252;-67
2022/04/15 03:16:46;;;;;;;7.07;5.30;;;11.70;99.60;;;;;;20996894;28;20722;-66
2022/04/15 03:26:48;;;;;;;7.90;5.00;;;11.70;99.70;;;;;;20996530;28;20246;-68
2022/04/15 03:36:50;;;;;;;7.80;5.23;;;11.60;99.70;;;;;;20996488;28;20217;-66
2022/04/15 03:46:51;;;;;;;9.40;5.30;;;11.60;99.70;;;;;;20995576;28;20246;-68
2022/04/15 03:56:53;;;;;;;9.87;5.13;;;11.50;99.80;;;;;;21016881;28;20261;-66
2022/04/15 04:06:55;;;;;;;11.87;8.23;;;11.50;99.90;;;;;;21010474;28;20236;-66
2022/04/15 04:16:57;;;;;;;18.53;12.87;;;11.40;99.80;;;;;;20994438;28;20663;-66
2022/04/15 04:26:58;;;;;;;6.80;5.40;;;11.40;99.80;;;;;;20994011;28;20251;-66
2022/04/15 04:37:00;;;;;;;8.93;5.77;;;11.30;99.80;;;;;;21010381;28;20254;-66
2022/04/15 04:47:02;;;;;;;9.13;5.80;;;11.30;99.90;;;;;;21009273;28;20227;-67
2022/04/15 04:57:04;;;;;;;8.83;5.10;;;11.20;99.60;;;;;;21008385;28;20208;-66
2022/04/15 05:07:06;;;;;;;10.00;5.03;;;11.20;99.50;;;;;;21008267;28;20249;-68
2022/04/15 05:17:08;;;;;;;8.03;4.53;;;11.30;99.50;;;;;;21033848;28;20216;-68
2022/04/15 05:27:16;;;;;;;8.73;4.90;;;11.40;99.50;;;;;;21014502;28;20265;-67
2022/04/15 05:37:18;;;;;;;8.35;5.00;;;11.40;99.70;;;;;;21006014;28;20457;-72
2022/04/15 05:47:19;;;;;;;5.33;4.53;;;11.50;99.20;;;;;;21053661;28;20237;-72
2022/04/15 05:57:23;;;;;;;10.80;6.97;;;11.60;99.10;;;;;;21065863;28;20211;-65
2022/04/15 06:07:24;;;;;;;6.03;4.60;;;11.70;99.30;;;;;;21048485;28;20320;-64
2022/04/15 06:17:26;;;;;;;6.33;4.77;;;12.10;98.90;;;;;;21085787;28;20561;-68
2022/04/15 06:27:28;;;;;;;5.60;4.80;;;12.30;98.70;;;;;;21084912;28;20292;-65
2022/04/15 06:37:29;;;;;;;5.67;4.63;;;12.40;99.00;;;;;;21033011;28;20207;-67
2022/04/15 06:47:31;;;;;;;8.03;5.03;;;12.70;98.30;;;;;;20999343;28;20241;-66
2022/04/15 06:57:33;;;;;;;6.20;5.00;;;13.10;98.50;;;;;;20998326;28;20260;-65
2022/04/15 07:07:35;;;;;;;9.47;5.23;;;13.20;98.70;;;;;;20998343;28;20235;-65
2022/04/15 07:17:37;;;;;;;10.37;5.27;;;13.60;98.20;;;;;;20997530;28;20204;-66
2022/04/15 07:27:39;;;;;;;9.87;6.17;;;14.30;97.50;;;;;;20996707;28;20234;-65
2022/04/15 07:37:41;;;;;;;12.53;6.80;;;14.30;97.50;;;;;;20996357;28;20229;-66
2022/04/15 07:47:43;;;;;;;14.07;8.23;;;14.70;95.50;;;;;;20995507;28;20235;-67
2022/04/15 07:57:51;;;;;;;11.53;8.53;;;14.90;94.90;;;;;;20995182;28;20214;-64
2022/04/15 08:07:53;;;;;;;12.13;6.83;;;15.20;94.50;;;;;;20994555;28;20240;-68
2022/04/15 08:17:55;;;;;;;14.73;6.27;;;15.30;93.40;;;;;;20994276;28;20568;-64
2022/04/15 08:27:57;;;;;;;10.00;6.03;;;15.30;91.80;;;;;;20993959;28;20719;-64
2022/04/15 08:37:59;;;;;;;7.47;4.63;;;15.70;90.90;;;;;;21048599;28;20209;-68
2022/04/15 08:48:02;;;;;;;8.37;5.23;;;15.90;88.40;;;;;;21076513;28;20296;-63
2022/04/15 08:58:05;;;;;;;7.93;5.50;;;16.20;87.80;;;;;;21076223;28;20210;-67
2022/04/15 09:08:11;;;;;;;10.23;6.50;;;16.50;86.90;;;;;;21075175;28;20242;-64
2022/04/15 09:18:30;;;;;;;8.83;6.33;;;16.80;85.90;;;;;;21083006;28;20612;-66
2022/04/15 09:28:34;;;;;;;8.87;5.87;;;17.40;82.50;;;;;;21088575;28;20238;-67
2022/04/15 09:38:44;;;;;;;6.37;4.97;;;17.60;82.30;;;;;;21037004;28;20213;-64
2022/04/15 09:49:06;;;;;;;5.80;4.57;;;17.70;79.70;;;;;;21102819;28;20321;-70
2022/04/15 09:59:11;;;;;;;3.87;2.47;;;17.40;77.50;;;;;;21110307;28;20569;-71
2022/04/15 10:09:13;;;;;;;5.27;2.10;;;18.00;71.70;;;;;;21048586;28;20242;-64
2022/04/15 10:19:15;;;;;;;4.03;3.20;;;17.90;71.70;;;;;;21088218;28;20621;-64
2022/04/15 10:29:17;;;;;;;2.47;1.10;;;18.30;66.90;;;;;;20997448;28;20232;-64
2022/04/15 10:39:24;;;;;;;1.83;1.00;;;18.20;65.40;;;;;;21000948;28;20266;-65
2022/04/15 10:49:30;;;;;;;5.17;3.83;;;18.20;62.20;;;;;;21000164;28;20241;-65
2022/04/15 11:09:59;;;;;;;2.03;1.00;;;18.60;56.80;;;;;;21023645;28;20331;-71
2022/04/15 11:20:04;;;;;;;4.27;2.17;;;18.70;57.10;;;;;;21080653;28;20205;-65
2022/04/15 11:30:12;;;;;;;0.70;0.70;;;18.80;54.70;;;;;;21078826;28;20237;-66
2022/04/15 11:40:14;;;;;;;1.00;0.83;;;19.00;53.20;;;;;;21037075;28;20204;-65
2022/04/15 11:50:16;;;;;;;3.37;1.10;;;19.20;53.50;;;;;;21065575;28;20282;-64
2022/04/15 12:00:18;;;;;;;1.80;1.07;;;19.60;53.80;;;;;;21028752;28;20259;-64
2022/04/15 12:10:21;;;;;;;2.17;1.20;;;19.90;52.80;;;;;;21075015;28;20747;-64
2022/04/15 12:20:22;;;;;;;1.60;1.10;;;19.90;53.50;;;;;;21067149;28;20266;-66
2022/04/15 12:30:39;;;;;;;2.27;1.30;;;20.40;51.80;;;;;;20992462;28;20276;-65
2022/04/15 12:40:40;;;;;;;1.37;1.20;;;20.40;52.60;;;;;;20992779;28;20199;-68
2022/04/15 12:50:46;;;;;;;1.73;1.50;;;20.50;52.90;;;;;;20979322;28;20245;-68
2022/04/15 13:00:50;;;;;;;3.03;1.40;;;20.10;53.40;;;;;;21006500;28;20209;-69
2022/04/15 13:10:54;;;;;;;2.67;2.10;;;19.90;53.20;;;;;;20991053;28;20399;-67
2022/04/15 13:21:11;;;;;;;6.27;1.83;;;19.90;53.20;;;;;;21073141;28;20213;-64
2022/04/15 13:31:13;;;;;;;2.03;1.23;;;19.80;53.30;;;;;;21074513;28;20237;-67
2022/04/15 13:41:15;;;;;;;3.73;1.50;;;19.80;53.10;;;;;;21090562;28;20306;-64
2022/04/15 13:51:17;;;;;;;3.37;1.27;;;20.30;52.20;;;;;;21104811;28;20716;-64
2022/04/15 14:01:26;;;;;;;1.73;1.27;;;20.70;50.70;;;;;;21098398;28;20567;-65
2022/04/15 14:11:28;;;;;;;1.92;1.73;;;24.90;46.50;;;;;;21088882;28;20265;-64
2022/04/15 14:21:30;;;;;;;2.05;1.10;;;29.70;39.80;;;;;;21096289;28;20207;-70
2022/04/15 14:31:32;;;;;;;1.20;0.93;;;30.10;35.40;;;;;;21108395;28;20289;-67
2022/04/15 14:41:34;;;;;;;2.85;1.05;;;31.10;33.60;;;;;;21116561;28;20684;-68
2022/04/15 14:51:35;;;;;;;1.60;1.13;;;32.60;32.30;;;;;;21121722;28;20322;-66
2022/04/15 15:01:37;;;;;;;2.45;1.23;;;32.80;30.10;;;;;;21107549;28;20203;-66
2022/04/15 15:11:39;;;;;;;3.15;2.38;;;27.40;35.40;;;;;;21121300;28;20330;-66
2022/04/15 15:21:42;;;;;;;1.25;1.10;;;30.60;33.00;;;;;;21044876;28;20298;-67
2022/04/15 15:31:44;;;;;;;1.73;1.20;;;26.50;35.40;;;;;;21032820;28;20242;-65
2022/04/15 15:41:46;;;;;;;2.73;1.57;;;24.20;38.90;;;;;;21027639;28;20203;-66
2022/04/15 15:51:56;;;;;;;4.23;2.00;;;23.50;40.70;;;;;;21025631;28;20306;-67
2022/04/15 16:01:58;;;;;;;3.17;2.03;;;23.20;43.30;;;;;;21032993;28;20227;-68
2022/04/15 16:12:01;;;;;;;3.25;2.20;;;25.30;42.00;;;;;;21056176;28;20246;-69
2022/04/15 16:22:03;;;;;;;6.30;3.10;;;26.10;42.40;;;;;;21029112;28;20199;-71
2022/04/15 16:32:06;;;;;;;7.47;3.30;;;23.00;44.90;;;;;;21106529;28;20232;-70
2022/04/15 16:42:09;;;;;;;8.07;3.07;;;22.10;47.70;;;;;;21123556;28;20207;-63
2022/04/15 16:52:11;;;;;;;4.90;2.37;;;22.30;45.70;;;;;;21060917;28;20766;-72
2022/04/15 17:02:13;;;;;;;2.90;1.90;;;21.90;46.30;;;;;;21026060;28;20215;-64
2022/04/15 17:12:15;;;;;;;3.63;1.83;;;20.40;47.50;;;;;;21034367;28;20245;-62
2022/04/15 17:22:17;;;;;;;2.73;2.03;;;19.10;48.00;;;;;;21033147;28;20302;-67
2022/04/15 17:32:18;;;;;;;2.17;1.87;;;18.00;49.10;;;;;;21025719;28;20238;-67
2022/04/15 17:42:38;;;;;;;4.37;1.90;;;17.20;50.10;;;;;;21018882;28;20203;-69
2022/04/15 17:52:40;;;;;;;2.57;2.00;;;16.60;50.70;;;;;;21017081;28;20235;-70
2022/04/15 18:02:43;;;;;;;1.73;1.60;;;16.40;51.20;;;;;;21042003;28;20211;-67
2022/04/15 18:12:45;;;;;;;1.90;1.70;;;16.00;52.40;;;;;;21071885;28;20242;-64
2022/04/15 18:22:47;;;;;;;2.03;1.60;;;15.50;52.90;;;;;;21068505;28;20212;-67
2022/04/15 18:32:49;;;;;;;1.30;1.20;;;14.90;52.70;;;;;;21090249;28;20238;-69
2022/04/15 18:42:51;;;;;;;1.30;1.20;;;14.90;53.30;;;;;;21091856;28;20273;-66
2022/04/15 18:52:52;;;;;;;2.00;1.33;;;14.50;53.20;;;;;;21054868;28;20251;-66
2022/04/15 19:02:54;;;;;;;1.40;1.30;;;14.40;54.10;;;;;;21091583;28;20293;-68
2022/04/15 19:12:56;;;;;;;2.07;1.60;;;14.20;54.00;;;;;;21089177;28;20244;-67
2022/04/15 19:22:58;;;;;;;1.50;1.40;;;14.10;55.50;;;;;;21104668;28;20236;-68
2022/04/15 19:33:00;;;;;;;2.97;1.37;;;14.00;55.60;;;;;;21097902;28;20265;-69
2022/04/15 19:43:02;;;;;;;1.43;1.33;;;13.90;55.70;;;;;;21083382;28;20205;-66
2022/04/15 19:53:04;;;;;;;2.33;1.83;;;13.80;56.10;;;;;;21083085;28;20248;-70
2022/04/15 20:03:06;;;;;;;2.20;2.00;;;13.70;56.70;;;;;;21090296;28;20747;-70
2022/04/15 20:13:08;;;;;;;2.40;2.20;;;13.50;57.20;;;;;;21040153;28;20272;-67
2022/04/15 20:23:12;;;;;;;2.47;1.83;;;13.20;57.50;;;;;;20995400;28;20213;-68
2022/04/15 20:33:15;;;;;;;3.00;2.43;;;13.10;57.90;;;;;;20996859;28;20266;-67
2022/04/15 20:43:17;;;;;;;5.03;3.60;;;13.10;58.70;;;;;;20974740;28;20214;-69
2022/04/15 20:53:19;;;;;;;5.93;3.70;;;12.70;59.40;;;;;;20992364;28;20603;-69
2022/04/15 21:03:21;;;;;;;5.03;3.10;;;12.70;60.00;;;;;;20996025;28;20214;-68
2022/04/15 21:13:25;;;;;;;4.73;2.83;;;12.60;61.10;;;;;;21005711;28;20251;-69
2022/04/15 21:23:27;;;;;;;3.20;2.30;;;12.30;61.60;;;;;;21008453;28;20213;-68
2022/04/15 21:33:29;;;;;;;3.13;2.50;;;12.30;62.30;;;;;;21006045;28;20690;-69
2022/04/15 21:43:30;;;;;;;5.67;2.83;;;12.00;62.70;;;;;;20986756;28;20293;-67
2022/04/15 21:53:33;;;;;;;4.40;2.60;;;11.60;64.90;;;;;;21003290;28;20240;-69
2022/04/15 22:03:34;;;;;;;3.20;2.73;;;11.60;65.20;;;;;;21003514;28;20613;-67
2022/04/15 22:13:36;;;;;;;3.90;3.10;;;11.40;66.30;;;;;;20999799;28;20244;-68
2022/04/15 22:23:38;;;;;;;3.73;2.73;;;11.40;67.10;;;;;;20997789;28;20214;-68
2022/04/15 22:33:41;;;;;;;3.73;2.77;;;11.40;67.70;;;;;;20999874;28;20234;-69
2022/04/15 22:43:42;;;;;;;5.53;2.60;;;11.40;67.90;;;;;;20998535;28;20218;-68
2022/04/15 22:53:44;;;;;;;4.20;3.00;;;11.50;69.10;;;;;;20997637;28;20288;-68
2022/04/15 23:03:46;;;;;;;3.30;2.90;;;11.50;69.30;;;;;;20997904;28;20203;-69
2022/04/15 23:13:48;;;;;;;3.63;2.90;;;11.60;69.90;;;;;;20995751;28;20286;-69
2022/04/15 23:23:50;;;;;;;3.20;2.90;;;11.60;70.50;;;;;;20995395;28;20571;-69
2022/04/15 23:33:51;;;;;;;4.23;3.00;;;11.70;71.20;;;;;;20994710;28;20576;-69
2022/04/15 23:43:53;;;;;;;6.70;3.37;;;11.70;71.70;;;;;;20994405;28;20211;-69
2022/04/15 23:53:55;;;;;;;4.50;3.33;;;11.70;72.30;;;;;;20993346;28;20234;-68
